Wetterdaten: Samstag, 09.05.2015
Datum Zeit Auen-Temp. Temp gefhlt Luftfeuchte Luftdruck Regen Wind Richtung Richtung Taupunkt Windben
09.05.2015 00:00 12,3 C 12,2 C 73 % 1016,8 hPa 0,0 mm 9,3 km/h (2 Bft) W-SW 247 7,6 C 3,1 km/h (1 Bft)
09.05.2015 00:05 12,3 C 12,2 C 73 % 1016,8 hPa 0,0 mm 8,8 km/h (2 Bft) S 180 7,6 C 3,9 km/h (1 Bft)
09.05.2015 00:10 12,1 C 12,0 C 74 % 1016,8 hPa 0,0 mm 7,3 km/h (2 Bft) W-SW 247 7,6 C 27,4 km/h (4 Bft)
09.05.2015 00:15 12,1 C 11,9 C 75 % 1017,1 hPa 0,0 mm 8,8 km/h (2 Bft) W 270 7,8 C 13,2 km/h (3 Bft)
09.05.2015 00:20 11,9 C 11,5 C 75 % 1017,1 hPa 0,0 mm 10,1 km/h (2 Bft) S 180 7,6 C 17,3 km/h (3 Bft)
09.05.2015 00:25 11,9 C 11,5 C 75 % 1017,1 hPa 0,0 mm 8,5 km/h (2 Bft) W 270 7,6 C 4,1 km/h (1 Bft)
09.05.2015 00:30 11,9 C 11,5 C 76 % 1017,1 hPa 0,0 mm 8,0 km/h (2 Bft) W-SW 247 7,8 C 12,2 km/h (2 Bft)
09.05.2015 00:35 11,8 C 11,5 C 76 % 1017,4 hPa 0,0 mm 6,5 km/h (2 Bft) W-SW 247 7,7 C 6,7 km/h (2 Bft)
09.05.2015 00:40 11,8 C 11,5 C 76 % 1017,4 hPa 0,0 mm 5,4 km/h (1 Bft) S 180 7,7 C 0,0 km/h (0 Bft)
09.05.2015 00:45 11,8 C 11,6 C 76 % 1017,4 hPa 0,0 mm 6,0 km/h (2 Bft) W 270 7,7 C 17,3 km/h (3 Bft)
09.05.2015 00:50 11,8 C 11,7 C 76 % 1017,4 hPa 0,0 mm 6,0 km/h (2 Bft) W-SW 247 7,7 C 16,3 km/h (3 Bft)
09.05.2015 00:55 11,8 C 11,7 C 75 % 1017,4 hPa 0,0 mm 4,1 km/h (1 Bft) S 180 7,5 C 3,6 km/h (1 Bft)
09.05.2015 01:00 11,8 C 11,7 C 75 % 1017,4 hPa 0,0 mm 2,6 km/h (1 Bft) SW 225 7,5 C 7,8 km/h (2 Bft)
09.05.2015 01:05 11,8 C 11,7 C 75 % 1017,4 hPa 0,0 mm 2,1 km/h (1 Bft) SW 225 7,5 C 4,4 km/h (1 Bft)
09.05.2015 01:10 11,8 C 11,7 C 75 % 1017,4 hPa 0,0 mm 2,6 km/h (1 Bft) SW 225 7,5 C 0,0 km/h (0 Bft)
09.05.2015 01:15 11,8 C 11,7 C 75 % 1017,4 hPa 0,0 mm 2,3 km/h (1 Bft) O-NO 67 7,5 C 6,0 km/h (2 Bft)
09.05.2015 01:20 11,8 C 11,7 C 75 % 1017,4 hPa 0,0 mm 2,3 km/h (1 Bft) W-SW 247 7,5 C 0,0 km/h (0 Bft)
09.05.2015 01:25 11,8 C 11,7 C 75 % 1017,4 hPa 0,0 mm 2,1 km/h (1 Bft) SW 225 7,5 C 0,0 km/h (0 Bft)
09.05.2015 01:30 11,8 C 11,7 C 75 % 1017,4 hPa 0,0 mm 2,3 km/h (1 Bft) SW 225 7,5 C 7,5 km/h (2 Bft)
09.05.2015 01:35 11,8 C 11,7 C 75 % 1017,4 hPa 0,0 mm 2,6 km/h (1 Bft) S-SW 202 7,5 C 0,0 km/h (0 Bft)
09.05.2015 01:40 11,8 C 11,7 C 74 % 1017,4 hPa 0,0 mm 2,1 km/h (1 Bft) W-NW 292 7,3 C 0,0 km/h (0 Bft)
09.05.2015 01:45 11,9 C 11,8 C 75 % 1017,4 hPa 0,0 mm 2,1 km/h (1 Bft) W-NW 292 7,6 C 3,1 km/h (1 Bft)
09.05.2015 01:50 11,8 C 11,7 C 74 % 1017,4 hPa 0,0 mm 2,1 km/h (1 Bft) W-SW 247 7,3 C 5,2 km/h (1 Bft)
09.05.2015 01:55 11,8 C 11,7 C 74 % 1017,6 hPa 0,0 mm 1,8 km/h (1 Bft) W-SW 247 7,3 C 4,4 km/h (1 Bft)
09.05.2015 02:00 11,8 C 11,7 C 74 % 1017,6 hPa 0,0 mm 1,6 km/h (1 Bft) W-SW 247 7,3 C 3,1 km/h (1 Bft)
09.05.2015 02:05 11,8 C 11,7 C 74 % 1017,6 hPa 0,0 mm 1,6 km/h (1 Bft) W-SW 247 7,3 C 0,0 km/h (0 Bft)
09.05.2015 02:10 11,9 C 11,8 C 75 % 1017,6 hPa 0,0 mm 3,4 km/h (1 Bft) W-SW 247 7,6 C 3,4 km/h (1 Bft)
09.05.2015 02:15 11,9 C 11,8 C 74 % 1017,5 hPa 0,0 mm 3,6 km/h (1 Bft) O-NO 67 7,4 C 4,9 km/h (1 Bft)
09.05.2015 02:20 11,9 C 11,8 C 75 % 1017,5 hPa 0,0 mm 2,6 km/h (1 Bft) S-SW 202 7,6 C 2,6 km/h (1 Bft)
09.05.2015 02:25 11,9 C 11,8 C 75 % 1017,5 hPa 0,0 mm 3,4 km/h (1 Bft) SW 225 7,6 C 5,7 km/h (1 Bft)
09.05.2015 02:30 11,7 C 11,5 C 75 % 1017,5 hPa 0,0 mm 3,4 km/h (1 Bft) W 270 7,4 C 2,8 km/h (1 Bft)
09.05.2015 02:35 11,6 C 11,3 C 76 % 1017,8 hPa 0,0 mm 3,4 km/h (1 Bft) W-SW 247 7,5 C 7,3 km/h (2 Bft)
09.05.2015 02:40 11,4 C 11,1 C 76 % 1017,8 hPa 0,0 mm 2,6 km/h (1 Bft) W 270 7,3 C 3,9 km/h (1 Bft)
09.05.2015 02:45 11,2 C 10,9 C 76 % 1017,8 hPa 0,0 mm 1,8 km/h (1 Bft) NW 315 7,1 C 3,6 km/h (1 Bft)
09.05.2015 02:50 11,1 C 10,7 C 78 % 1017,8 hPa 0,0 mm 3,1 km/h (1 Bft) W-SW 247 7,4 C 6,7 km/h (2 Bft)
09.05.2015 02:55 11,0 C 10,7 C 78 % 1017,9 hPa 0,0 mm 5,7 km/h (1 Bft) W-SW 247 7,3 C 8,8 km/h (2 Bft)
09.05.2015 03:00 10,9 C 10,5 C 80 % 1017,9 hPa 0,7 mm 8,3 km/h (2 Bft) S-SW 202 7,6 C 11,4 km/h (2 Bft)
09.05.2015 03:05 10,8 C 10,4 C 80 % 1017,9 hPa 0,0 mm 8,8 km/h (2 Bft) S 180 7,5 C 12,9 km/h (3 Bft)
09.05.2015 03:10 10,6 C 10,2 C 82 % 1017,9 hPa 0,0 mm 8,5 km/h (2 Bft) SW 225 7,7 C 16,3 km/h (3 Bft)
09.05.2015 03:15 10,6 C 10,2 C 82 % 1018,1 hPa 0,0 mm 9,1 km/h (2 Bft) S-SW 202 7,7 C 11,1 km/h (2 Bft)
09.05.2015 03:20 10,5 C 10,1 C 82 % 1018,1 hPa 0,0 mm 8,3 km/h (2 Bft) SW 225 7,6 C 7,5 km/h (2 Bft)
09.05.2015 03:25 10,5 C 10,1 C 82 % 1018,1 hPa 0,0 mm 8,3 km/h (2 Bft) SW 225 7,6 C 9,8 km/h (2 Bft)
09.05.2015 03:30 10,4 C 10,2 C 82 % 1018,1 hPa 0,0 mm 5,4 km/h (1 Bft) O-SO 112 7,5 C 0,0 km/h (0 Bft)
09.05.2015 03:35 10,3 C 10,1 C 83 % 1017,9 hPa 0,0 mm 2,6 km/h (1 Bft) O 90 7,5 C 0,0 km/h (0 Bft)
09.05.2015 03:40 10,2 C 10,0 C 83 % 1017,9 hPa 0,0 mm 0,3 km/h (0 Bft) O-SO 112 7,4 C 0,0 km/h (0 Bft)
09.05.2015 03:45 10,1 C 9,9 C 83 % 1017,9 hPa 0,0 mm 0,0 km/h (0 Bft) O-SO 112 7,3 C 0,0 km/h (0 Bft)
09.05.2015 03:50 10,1 C 9,9 C 84 % 1017,9 hPa 0,7 mm 0,0 km/h (0 Bft) O-NO 67 7,5 C 0,0 km/h (0 Bft)
09.05.2015 03:55 10,0 C 9,8 C 84 % 1017,9 hPa 0,0 mm 0,0 km/h (0 Bft) O-NO 67 7,4 C 0,0 km/h (0 Bft)
09.05.2015 04:00 10,0 C 9,8 C 84 % 1017,9 hPa 0,0 mm 0,0 km/h (0 Bft) O-NO 67 7,4 C 0,0 km/h (0 Bft)
09.05.2015 04:05 10,0 C 9,8 C 85 % 1017,9 hPa 0,0 mm 0,0 km/h (0 Bft) O 90 7,6 C 0,0 km/h (0 Bft)
09.05.2015 04:10 10,0 C 9,9 C 85 % 1017,9 hPa 0,0 mm 0,0 km/h (0 Bft) O 90 7,6 C 0,0 km/h (0 Bft)
09.05.2015 04:15 10,0 C 9,9 C 85 % 1018,0 hPa 0,0 mm 0,0 km/h (0 Bft) O-NO 67 7,6 C 0,0 km/h (0 Bft)
09.05.2015 04:20 10,0 C 9,9 C 85 % 1018,0 hPa 0,0 mm 0,0 km/h (0 Bft) O-NO 67 7,6 C 0,0 km/h (0 Bft)
09.05.2015 04:25 10,0 C 9,8 C 85 % 1018,0 hPa 0,0 mm 0,0 km/h (0 Bft) S 180 7,6 C 0,0 km/h (0 Bft)
09.05.2015 04:30 10,0 C 9,8 C 85 % 1018,0 hPa 0,0 mm 0,0 km/h (0 Bft) S 180 7,6 C 0,0 km/h (0 Bft)
09.05.2015 04:35 10,0 C 9,8 C 86 % 1017,9 hPa 0,0 mm 0,0 km/h (0 Bft) S-SO 157 7,8 C 0,0 km/h (0 Bft)
09.05.2015 04:40 10,0 C 9,8 C 86 % 1017,9 hPa 0,0 mm 0,0 km/h (0 Bft) SO 135 7,8 C 0,0 km/h (0 Bft)
09.05.2015 04:45 10,0 C 9,8 C 86 % 1017,9 hPa 0,0 mm 0,0 km/h (0 Bft) O-SO 112 7,8 C 0,0 km/h (0 Bft)
09.05.2015 04:50 10,0 C 9,9 C 87 % 1017,9 hPa 0,0 mm 0,0 km/h (0 Bft) O-NO 67 7,9 C 0,0 km/h (0 Bft)
09.05.2015 04:55 10,0 C 9,8 C 87 % 1018,2 hPa 0,0 mm 0,0 km/h (0 Bft) O-NO 67 7,9 C 0,0 km/h (0 Bft)
09.05.2015 05:00 9,9 C 9,8 C 83 % 1018,2 hPa 0,0 mm 0,0 km/h (0 Bft) O-NO 67 7,2 C 0,0 km/h (0 Bft)
09.05.2015 05:05 9,9 C 9,9 C 83 % 1018,2 hPa 0,0 mm 0,0 km/h (0 Bft) S-SO 157 7,2 C 0,0 km/h (0 Bft)
09.05.2015 05:10 10,0 C 9,9 C 87 % 1018,2 hPa 0,0 mm 0,3 km/h (0 Bft) W 270 7,9 C 0,0 km/h (0 Bft)
09.05.2015 05:15 10,1 C 9,9 C 87 % 1018,5 hPa 0,0 mm 1,0 km/h (0 Bft) W 270 8,0 C 0,0 km/h (0 Bft)
09.05.2015 05:20 10,0 C 9,9 C 87 % 1018,5 hPa 0,0 mm 2,1 km/h (1 Bft) W-SW 247 7,9 C 6,2 km/h (2 Bft)
09.05.2015 05:25 10,1 C 10,0 C 87 % 1018,5 hPa 0,0 mm 2,3 km/h (1 Bft) W-SW 247 8,0 C 3,9 km/h (1 Bft)
09.05.2015 05:30 10,0 C 9,9 C 87 % 1018,5 hPa 0,0 mm 1,8 km/h (1 Bft) S 180 7,9 C 0,0 km/h (0 Bft)
09.05.2015 05:35 10,0 C 9,9 C 88 % 1018,5 hPa 0,0 mm 0,8 km/h (0 Bft) S-SW 202 8,1 C 3,6 km/h (1 Bft)
09.05.2015 05:40 10,0 C 9,9 C 88 % 1018,5 hPa 0,0 mm 0,3 km/h (0 Bft) W-SW 247 8,1 C 0,0 km/h (0 Bft)
09.05.2015 05:45 10,1 C 10,0 C 88 % 1018,5 hPa 0,0 mm 0,8 km/h (0 Bft) W-SW 247 8,2 C 0,0 km/h (0 Bft)
09.05.2015 05:50 10,1 C 10,0 C 88 % 1018,5 hPa 0,0 mm 0,8 km/h (0 Bft) O-SO 112 8,2 C 0,0 km/h (0 Bft)
09.05.2015 05:55 10,1 C 10,0 C 88 % 1018,8 hPa 0,0 mm 1,0 km/h (0 Bft) O-NO 67 8,2 C 3,9 km/h (1 Bft)
09.05.2015 06:00 10,2 C 10,0 C 87 % 1018,8 hPa 0,0 mm 0,8 km/h (0 Bft) W-SW 247 8,1 C 0,0 km/h (0 Bft)
09.05.2015 06:05 10,2 C 10,0 C 87 % 1018,8 hPa 0,0 mm 1,0 km/h (0 Bft) NW 315 8,1 C 0,0 km/h (0 Bft)
09.05.2015 06:10 10,2 C 10,0 C 87 % 1018,8 hPa 0,0 mm 1,6 km/h (1 Bft) W-SW 247 8,1 C 3,1 km/h (1 Bft)
09.05.2015 06:15 10,2 C 10,0 C 87 % 1018,8 hPa 0,0 mm 1,8 km/h (1 Bft) SW 225 8,1 C 0,0 km/h (0 Bft)
09.05.2015 06:20 10,2 C 10,0 C 87 % 1018,8 hPa 0,0 mm 1,6 km/h (1 Bft) S 180 8,1 C 2,6 km/h (1 Bft)
09.05.2015 06:25 10,2 C 10,0 C 87 % 1018,8 hPa 0,0 mm 1,6 km/h (1 Bft) W-NW 292 8,1 C 0,0 km/h (0 Bft)
09.05.2015 06:30 10,3 C 10,1 C 87 % 1018,8 hPa 0,0 mm 1,3 km/h (1 Bft) W 270 8,2 C 3,1 km/h (1 Bft)
09.05.2015 06:35 10,3 C 10,1 C 87 % 1018,9 hPa 0,0 mm 1,6 km/h (1 Bft) S-SW 202 8,2 C 0,0 km/h (0 Bft)
09.05.2015 06:40 10,3 C 10,1 C 87 % 1018,9 hPa 0,0 mm 0,8 km/h (0 Bft) S-SW 202 8,2 C 0,0 km/h (0 Bft)
09.05.2015 06:45 10,3 C 10,2 C 87 % 1018,9 hPa 0,0 mm 0,3 km/h (0 Bft) W 270 8,2 C 0,0 km/h (0 Bft)
09.05.2015 06:50 10,4 C 10,2 C 87 % 1018,9 hPa 0,0 mm 0,8 km/h (0 Bft) W 270 8,3 C 3,6 km/h (1 Bft)
09.05.2015 06:55 10,4 C 10,3 C 87 % 1019,2 hPa 0,0 mm 0,8 km/h (0 Bft) W 270 8,3 C 0,0 km/h (0 Bft)
09.05.2015 07:00 10,4 C 10,3 C 87 % 1019,2 hPa 0,0 mm 2,1 km/h (1 Bft) W-SW 247 8,3 C 4,7 km/h (1 Bft)
09.05.2015 07:05 10,5 C 10,3 C 87 % 1019,2 hPa 0,0 mm 2,6 km/h (1 Bft) W-SW 247 8,4 C 6,7 km/h (2 Bft)
09.05.2015 07:10 10,5 C 10,4 C 84 % 1019,2 hPa 0,0 mm 1,3 km/h (1 Bft) W-SW 247 7,9 C 0,0 km/h (0 Bft)
09.05.2015 07:15 10,5 C 10,4 C 84 % 1019,4 hPa 0,0 mm 0,8 km/h (0 Bft) W 270 7,9 C 0,0 km/h (0 Bft)
09.05.2015 07:20 10,5 C 10,4 C 84 % 1019,4 hPa 0,7 mm 2,1 km/h (1 Bft) S-SW 202 7,9 C 0,0 km/h (0 Bft)
09.05.2015 07:25 10,6 C 10,5 C 84 % 1019,4 hPa 0,0 mm 2,1 km/h (1 Bft) W 270 8,0 C 0,0 km/h (0 Bft)
09.05.2015 07:30 10,7 C 10,7 C 84 % 1019,4 hPa 0,0 mm 0,8 km/h (0 Bft) W-SW 247 8,1 C 0,0 km/h (0 Bft)
09.05.2015 07:35 10,7 C 10,8 C 84 % 1019,4 hPa 0,0 mm 0,5 km/h (0 Bft) W-SW 247 8,1 C 3,4 km/h (1 Bft)
09.05.2015 07:40 10,8 C 10,9 C 84 % 1019,4 hPa 0,0 mm 1,8 km/h (1 Bft) W 270 8,2 C 6,2 km/h (2 Bft)
09.05.2015 07:45 10,8 C 10,9 C 84 % 1019,4 hPa 0,0 mm 2,3 km/h (1 Bft) W 270 8,2 C 2,6 km/h (1 Bft)
09.05.2015 07:50 11,0 C 11,1 C 84 % 1019,4 hPa 0,0 mm 2,3 km/h (1 Bft) W 270 8,4 C 6,0 km/h (2 Bft)
09.05.2015 07:55 11,0 C 11,2 C 84 % 1019,4 hPa 0,0 mm 2,3 km/h (1 Bft) W-SW 247 8,4 C 2,8 km/h (1 Bft)
09.05.2015 08:00 11,1 C 11,2 C 83 % 1019,4 hPa 0,0 mm 4,4 km/h (1 Bft) W 270 8,3 C 7,3 km/h (2 Bft)
09.05.2015 08:05 11,3 C 11,4 C 83 % 1019,4 hPa 0,0 mm 5,2 km/h (1 Bft) W 270 8,5 C 7,3 km/h (2 Bft)
09.05.2015 08:10 11,3 C 11,6 C 83 % 1019,4 hPa 0,0 mm 6,2 km/h (2 Bft) W 270 8,5 C 4,9 km/h (1 Bft)
09.05.2015 08:15 11,4 C 11,8 C 83 % 1019,5 hPa 0,0 mm 6,2 km/h (2 Bft) NW 315 8,6 C 8,3 km/h (2 Bft)
09.05.2015 08:20 11,6 C 12,0 C 83 % 1019,5 hPa 0,0 mm 3,6 km/h (1 Bft) W 270 8,8 C 3,4 km/h (1 Bft)
09.05.2015 08:25 11,6 C 12,1 C 83 % 1019,5 hPa 0,0 mm 3,4 km/h (1 Bft) SW 225 8,8 C 2,6 km/h (1 Bft)
09.05.2015 08:30 11,7 C 12,2 C 83 % 1019,5 hPa 0,0 mm 2,1 km/h (1 Bft) W-SW 247 8,9 C 3,6 km/h (1 Bft)
09.05.2015 08:35 11,8 C 12,3 C 82 % 1019,8 hPa 0,0 mm 0,8 km/h (0 Bft) W-SW 247 8,8 C 0,0 km/h (0 Bft)
09.05.2015 08:40 11,8 C 12,3 C 82 % 1019,8 hPa 0,0 mm 1,3 km/h (1 Bft) S-SW 202 8,8 C 2,8 km/h (1 Bft)
09.05.2015 08:45 11,8 C 12,2 C 82 % 1019,8 hPa 0,0 mm 1,3 km/h (1 Bft) W-NW 292 8,8 C 0,0 km/h (0 Bft)
09.05.2015 08:50 11,9 C 12,4 C 82 % 1019,8 hPa 0,0 mm 1,3 km/h (1 Bft) W 270 8,9 C 0,0 km/h (0 Bft)
09.05.2015 08:55 12,0 C 12,4 C 82 % 1020,1 hPa 0,0 mm 1,3 km/h (1 Bft) W-NW 292 9,0 C 0,0 km/h (0 Bft)
09.05.2015 09:00 12,1 C 12,6 C 82 % 1020,1 hPa 0,0 mm 0,8 km/h (0 Bft) W 270 9,1 C 0,0 km/h (0 Bft)
09.05.2015 09:05 12,1 C 12,7 C 81 % 1020,1 hPa 0,0 mm 1,0 km/h (0 Bft) SW 225 8,9 C 0,0 km/h (0 Bft)
09.05.2015 09:10 12,3 C 12,8 C 81 % 1020,1 hPa 0,0 mm 1,3 km/h (1 Bft) W 270 9,1 C 0,0 km/h (0 Bft)
09.05.2015 09:15 12,3 C 13,0 C 81 % 1020,0 hPa 0,0 mm 0,5 km/h (0 Bft) W 270 9,1 C 0,0 km/h (0 Bft)
09.05.2015 09:20 12,4 C 13,1 C 81 % 1020,0 hPa 0,0 mm 1,0 km/h (0 Bft) W-NW 292 9,2 C 0,0 km/h (0 Bft)
09.05.2015 09:25 12,4 C 13,2 C 81 % 1020,0 hPa 0,0 mm 1,8 km/h (1 Bft) W-NW 292 9,2 C 4,4 km/h (1 Bft)
09.05.2015 09:30 12,4 C 13,2 C 80 % 1020,0 hPa 0,0 mm 3,4 km/h (1 Bft) W-SW 247 9,0 C 10,1 km/h (2 Bft)
09.05.2015 09:35 12,4 C 13,2 C 79 % 1020,3 hPa 0,0 mm 3,4 km/h (1 Bft) W-SW 247 8,9 C 2,6 km/h (1 Bft)
09.05.2015 09:40 12,5 C 13,3 C 79 % 1020,3 hPa 0,0 mm 2,8 km/h (1 Bft) W-SW 247 9,0 C 5,7 km/h (1 Bft)
09.05.2015 09:45 12,5 C 13,3 C 79 % 1020,3 hPa 0,0 mm 2,3 km/h (1 Bft) S 180 9,0 C 2,6 km/h (1 Bft)
09.05.2015 09:50 12,5 C 13,5 C 79 % 1020,3 hPa 0,0 mm 3,6 km/h (1 Bft) S 180 9,0 C 8,3 km/h (2 Bft)
09.05.2015 09:55 12,6 C 13,5 C 79 % 1020,3 hPa 0,0 mm 4,4 km/h (1 Bft) W 270 9,1 C 14,2 km/h (3 Bft)
09.05.2015 10:00 12,6 C 13,7 C 79 % 1020,3 hPa 0,0 mm 4,9 km/h (1 Bft) NW 315 9,1 C 10,6 km/h (2 Bft)
09.05.2015 10:05 12,7 C 13,7 C 79 % 1020,3 hPa 0,0 mm 4,7 km/h (1 Bft) W-NW 292 9,2 C 3,1 km/h (1 Bft)
09.05.2015 10:10 12,9 C 14,1 C 79 % 1020,3 hPa 0,0 mm 4,4 km/h (1 Bft) W-SW 247 9,3 C 2,8 km/h (1 Bft)
09.05.2015 10:15 13,0 C 14,3 C 79 % 1020,2 hPa 0,0 mm 4,4 km/h (1 Bft) W-SW 247 9,4 C 6,7 km/h (2 Bft)
09.05.2015 10:20 13,0 C 14,6 C 78 % 1020,2 hPa 0,0 mm 4,4 km/h (1 Bft) W-SW 247 9,3 C 5,2 km/h (1 Bft)
09.05.2015 10:25 13,0 C 14,6 C 78 % 1020,2 hPa 0,0 mm 3,6 km/h (1 Bft) W-SW 247 9,3 C 4,1 km/h (1 Bft)
09.05.2015 10:30 13,1 C 14,7 C 78 % 1020,2 hPa 0,0 mm 2,3 km/h (1 Bft) NW 315 9,4 C 0,0 km/h (0 Bft)
09.05.2015 10:35 13,1 C 14,8 C 78 % 1020,4 hPa 0,0 mm 3,6 km/h (1 Bft) SW 225 9,4 C 9,8 km/h (2 Bft)
09.05.2015 10:40 13,3 C 15,1 C 77 % 1020,4 hPa 0,0 mm 3,9 km/h (1 Bft) W-NW 292 9,4 C 3,9 km/h (1 Bft)
09.05.2015 10:45 13,5 C 15,5 C 77 % 1020,4 hPa 0,0 mm 4,4 km/h (1 Bft) W-NW 292 9,5 C 3,9 km/h (1 Bft)
09.05.2015 10:50 13,7 C 16,0 C 77 % 1020,4 hPa 0,0 mm 3,9 km/h (1 Bft) SW 225 9,7 C 5,2 km/h (1 Bft)
09.05.2015 10:55 13,9 C 16,4 C 76 % 1020,4 hPa 0,0 mm 3,6 km/h (1 Bft) NW 315 9,7 C 12,4 km/h (3 Bft)
09.05.2015 11:00 14,1 C 17,0 C 76 % 1020,4 hPa 0,0 mm 4,7 km/h (1 Bft) W-SW 247 9,9 C 10,4 km/h (2 Bft)
09.05.2015 11:05 14,2 C 17,0 C 75 % 1020,4 hPa 0,0 mm 6,5 km/h (2 Bft) W 270 9,8 C 5,2 km/h (1 Bft)
09.05.2015 11:10 14,2 C 16,8 C 74 % 1020,4 hPa 0,0 mm 7,0 km/h (2 Bft) NW 315 9,6 C 7,8 km/h (2 Bft)
09.05.2015 11:15 14,3 C 16,8 C 74 % 1020,6 hPa 0,0 mm 7,3 km/h (2 Bft) W-NW 292 9,7 C 6,2 km/h (2 Bft)
09.05.2015 11:20 14,4 C 16,8 C 73 % 1020,6 hPa 0,0 mm 7,5 km/h (2 Bft) W-SW 247 9,6 C 8,8 km/h (2 Bft)
09.05.2015 11:25 14,5 C 17,3 C 73 % 1020,6 hPa 0,0 mm 6,2 km/h (2 Bft) O-SO 112 9,7 C 3,9 km/h (1 Bft)
09.05.2015 11:30 14,8 C 17,7 C 73 % 1020,6 hPa 0,0 mm 5,4 km/h (1 Bft) W-SW 247 10,0 C 7,5 km/h (2 Bft)
09.05.2015 11:35 14,7 C 17,5 C 72 % 1020,7 hPa 0,0 mm 6,0 km/h (2 Bft) W 270 9,7 C 8,3 km/h (2 Bft)
09.05.2015 11:40 14,7 C 17,5 C 71 % 1020,7 hPa 0,0 mm 6,7 km/h (2 Bft) W-SW 247 9,5 C 9,8 km/h (2 Bft)
09.05.2015 11:45 14,7 C 17,3 C 71 % 1020,7 hPa 0,0 mm 6,5 km/h (2 Bft) W-NW 292 9,5 C 16,6 km/h (3 Bft)
09.05.2015 11:50 14,7 C 17,1 C 70 % 1020,7 hPa 0,0 mm 8,8 km/h (2 Bft) NW 315 9,3 C 8,3 km/h (2 Bft)
09.05.2015 11:55 14,7 C 16,9 C 70 % 1020,8 hPa 0,0 mm 11,4 km/h (2 Bft) W 270 9,3 C 17,9 km/h (3 Bft)
09.05.2015 12:00 14,7 C 16,7 C 70 % 1020,8 hPa 0,0 mm 11,9 km/h (2 Bft) W 270 9,3 C 7,3 km/h (2 Bft)
09.05.2015 12:05 14,9 C 16,9 C 70 % 1020,8 hPa 0,0 mm 11,1 km/h (2 Bft) W-NW 292 9,5 C 10,9 km/h (2 Bft)
09.05.2015 12:10 15,0 C 17,2 C 69 % 1020,8 hPa 0,0 mm 10,1 km/h (2 Bft) W 270 9,4 C 14,0 km/h (3 Bft)
09.05.2015 12:15 15,0 C 17,3 C 69 % 1020,8 hPa 0,0 mm 12,2 km/h (2 Bft) W 270 9,4 C 15,3 km/h (3 Bft)
09.05.2015 12:20 15,2 C 17,7 C 69 % 1020,8 hPa 0,0 mm 11,1 km/h (2 Bft) W 270 9,6 C 28,5 km/h (4 Bft)
09.05.2015 12:25 15,4 C 18,1 C 69 % 1020,8 hPa 0,0 mm 9,8 km/h (2 Bft) W-NW 292 9,7 C 26,4 km/h (4 Bft)
09.05.2015 12:30 15,5 C 18,4 C 69 % 1020,8 hPa 0,0 mm 7,8 km/h (2 Bft) N-NW 337 9,8 C 10,4 km/h (2 Bft)
09.05.2015 12:35 15,4 C 18,3 C 67 % 1020,8 hPa 0,0 mm 8,8 km/h (2 Bft) W-NW 292 9,3 C 28,2 km/h (4 Bft)
09.05.2015 12:40 15,1 C 17,6 C 67 % 1020,8 hPa 0,0 mm 10,1 km/h (2 Bft) W 270 9,0 C 8,3 km/h (2 Bft)
09.05.2015 12:45 15,2 C 17,7 C 67 % 1020,8 hPa 0,0 mm 9,3 km/h (2 Bft) SW 225 9,1 C 11,1 km/h (2 Bft)
09.05.2015 12:50 15,0 C 17,4 C 67 % 1020,8 hPa 0,0 mm 8,0 km/h (2 Bft) NW 315 8,9 C 21,2 km/h (4 Bft)
09.05.2015 12:55 14,9 C 17,1 C 67 % 1020,8 hPa 0,0 mm 8,3 km/h (2 Bft) W-SW 247 8,8 C 16,6 km/h (3 Bft)
09.05.2015 13:00 14,7 C 16,8 C 67 % 1020,8 hPa 0,0 mm 7,8 km/h (2 Bft) SW 225 8,6 C 9,3 km/h (2 Bft)
09.05.2015 13:05 14,7 C 16,8 C 67 % 1020,8 hPa 0,0 mm 7,5 km/h (2 Bft) W-SW 247 8,6 C 23,3 km/h (4 Bft)
09.05.2015 13:10 14,9 C 17,1 C 67 % 1020,8 hPa 0,0 mm 7,3 km/h (2 Bft) W-SW 247 8,8 C 5,7 km/h (1 Bft)
09.05.2015 13:15 14,9 C 17,2 C 67 % 1020,8 hPa 0,0 mm 7,8 km/h (2 Bft) S-SW 202 8,8 C 8,8 km/h (2 Bft)
09.05.2015 13:20 14,8 C 17,0 C 67 % 1020,8 hPa 0,0 mm 7,8 km/h (2 Bft) W-SW 247 8,7 C 5,2 km/h (1 Bft)
09.05.2015 13:25 14,7 C 16,7 C 67 % 1020,8 hPa 0,0 mm 8,5 km/h (2 Bft) NW 315 8,6 C 15,5 km/h (3 Bft)
09.05.2015 13:30 15,0 C 17,1 C 68 % 1020,8 hPa 0,0 mm 7,8 km/h (2 Bft) NW 315 9,1 C 4,7 km/h (1 Bft)
09.05.2015 13:35 15,9 C 18,7 C 68 % 1020,6 hPa 0,0 mm 7,5 km/h (2 Bft) W 270 10,0 C 13,2 km/h (3 Bft)
09.05.2015 13:40 15,7 C 18,9 C 67 % 1020,6 hPa 0,0 mm 7,3 km/h (2 Bft) W-SW 247 9,6 C 6,5 km/h (2 Bft)
09.05.2015 13:45 15,6 C 18,8 C 67 % 1020,6 hPa 0,0 mm 7,3 km/h (2 Bft) W-SW 247 9,5 C 5,2 km/h (1 Bft)
09.05.2015 13:50 15,8 C 19,3 C 67 % 1020,6 hPa 0,0 mm 5,7 km/h (1 Bft) SW 225 9,7 C 11,4 km/h (2 Bft)
09.05.2015 13:55 16,0 C 19,6 C 66 % 1020,6 hPa 0,0 mm 5,4 km/h (1 Bft) W-NW 292 9,7 C 6,2 km/h (2 Bft)
09.05.2015 14:00 16,1 C 19,7 C 65 % 1020,6 hPa 0,0 mm 8,5 km/h (2 Bft) SO 135 9,5 C 4,9 km/h (1 Bft)
09.05.2015 14:05 16,6 C 20,6 C 65 % 1020,6 hPa 0,0 mm 10,4 km/h (2 Bft) W-NW 292 10,0 C 22,0 km/h (4 Bft)
09.05.2015 14:10 17,3 C 21,4 C 65 % 1020,6 hPa 0,0 mm 7,8 km/h (2 Bft) SW 225 10,7 C 7,5 km/h (2 Bft)
09.05.2015 14:15 17,5 C 22,3 C 63 % 1020,6 hPa 0,0 mm 8,3 km/h (2 Bft) W-SW 247 10,4 C 10,4 km/h (2 Bft)
09.05.2015 14:20 17,6 C 22,7 C 61 % 1020,6 hPa 0,0 mm 8,3 km/h (2 Bft) N-NW 337 10,0 C 8,3 km/h (2 Bft)
09.05.2015 14:25 17,5 C 22,5 C 60 % 1020,6 hPa 0,0 mm 8,8 km/h (2 Bft) W-NW 292 9,6 C 5,4 km/h (1 Bft)
09.05.2015 14:30 17,5 C 22,7 C 61 % 1020,6 hPa 0,0 mm 8,3 km/h (2 Bft) W-SW 247 9,9 C 8,3 km/h (2 Bft)
09.05.2015 14:35 17,6 C 22,6 C 60 % 1020,5 hPa 0,0 mm 6,7 km/h (2 Bft) W 270 9,7 C 12,7 km/h (3 Bft)
09.05.2015 14:40 17,4 C 21,6 C 60 % 1020,5 hPa 0,0 mm 7,8 km/h (2 Bft) SW 225 9,6 C 8,8 km/h (2 Bft)
09.05.2015 14:45 17,5 C 21,6 C 60 % 1020,5 hPa 0,0 mm 7,3 km/h (2 Bft) W-NW 292 9,6 C 10,4 km/h (2 Bft)
09.05.2015 14:50 17,3 C 21,2 C 60 % 1020,5 hPa 0,0 mm 6,0 km/h (2 Bft) W-NW 292 9,5 C 10,6 km/h (2 Bft)
09.05.2015 14:55 17,3 C 21,2 C 60 % 1020,8 hPa 0,0 mm 6,5 km/h (2 Bft) W-SW 247 9,5 C 5,2 km/h (1 Bft)
09.05.2015 15:00 16,9 C 20,4 C 61 % 1020,8 hPa 0,0 mm 5,7 km/h (1 Bft) W 270 9,3 C 4,9 km/h (1 Bft)
09.05.2015 15:05 16,7 C 19,9 C 61 % 1020,8 hPa 0,0 mm 4,9 km/h (1 Bft) W-NW 292 9,1 C 4,4 km/h (1 Bft)
09.05.2015 15:10 16,7 C 19,4 C 61 % 1020,8 hPa 0,0 mm 7,0 km/h (2 Bft) W 270 9,1 C 0,0 km/h (0 Bft)
09.05.2015 15:15 17,0 C 19,8 C 60 % 1020,7 hPa 0,0 mm 8,5 km/h (2 Bft) W 270 9,2 C 11,9 km/h (2 Bft)
09.05.2015 15:20 17,2 C 20,0 C 60 % 1020,7 hPa 0,0 mm 10,9 km/h (2 Bft) W 270 9,4 C 33,1 km/h (5 Bft)
09.05.2015 15:25 17,0 C 19,7 C 59 % 1020,7 hPa 0,0 mm 12,9 km/h (3 Bft) W 270 8,9 C 11,9 km/h (2 Bft)
09.05.2015 15:30 16,9 C 19,5 C 60 % 1020,7 hPa 0,0 mm 12,4 km/h (3 Bft) W-NW 292 9,1 C 28,7 km/h (4 Bft)
09.05.2015 15:35 16,6 C 18,8 C 59 % 1020,8 hPa 0,0 mm 12,4 km/h (3 Bft) W-SW 247 8,6 C 26,2 km/h (4 Bft)
09.05.2015 15:40 16,5 C 18,3 C 60 % 1020,8 hPa 0,0 mm 13,2 km/h (3 Bft) S 180 8,7 C 10,6 km/h (2 Bft)
09.05.2015 15:45 16,5 C 18,4 C 60 % 1020,8 hPa 0,0 mm 9,6 km/h (2 Bft) W-SW 247 8,7 C 7,8 km/h (2 Bft)
09.05.2015 15:50 16,4 C 18,5 C 60 % 1020,8 hPa 0,0 mm 8,8 km/h (2 Bft) W-SW 247 8,6 C 16,3 km/h (3 Bft)
09.05.2015 15:55 16,5 C 18,5 C 60 % 1020,5 hPa 0,0 mm 9,1 km/h (2 Bft) W 270 8,7 C 11,9 km/h (2 Bft)
09.05.2015 16:00 16,4 C 18,6 C 60 % 1020,5 hPa 0,0 mm 11,7 km/h (2 Bft) W 270 8,6 C 17,3 km/h (3 Bft)
09.05.2015 16:05 16,2 C 17,9 C 60 % 1020,5 hPa 0,0 mm 13,7 km/h (3 Bft) NW 315 8,4 C 22,0 km/h (4 Bft)
09.05.2015 16:10 16,1 C 17,8 C 60 % 1020,5 hPa 0,0 mm 11,9 km/h (2 Bft) W 270 8,3 C 12,2 km/h (2 Bft)
09.05.2015 16:15 16,1 C 17,8 C 60 % 1020,8 hPa 0,0 mm 11,9 km/h (2 Bft) W-NW 292 8,3 C 24,3 km/h (4 Bft)
09.05.2015 16:20 16,1 C 17,8 C 60 % 1020,8 hPa 0,0 mm 10,9 km/h (2 Bft) N-NW 337 8,3 C 3,4 km/h (1 Bft)
09.05.2015 16:25 16,1 C 17,9 C 60 % 1020,8 hPa 0,0 mm 9,1 km/h (2 Bft) S 180 8,3 C 9,6 km/h (2 Bft)
09.05.2015 16:30 16,2 C 18,0 C 60 % 1020,8 hPa 0,0 mm 7,5 km/h (2 Bft) NW 315 8,4 C 17,6 km/h (3 Bft)
09.05.2015 16:35 16,2 C 18,0 C 60 % 1020,6 hPa 0,0 mm 9,1 km/h (2 Bft) W-NW 292 8,4 C 9,8 km/h (2 Bft)
09.05.2015 16:40 16,3 C 18,1 C 60 % 1020,6 hPa 0,0 mm 9,1 km/h (2 Bft) N-NO 22 8,5 C 6,7 km/h (2 Bft)
09.05.2015 16:45 16,4 C 18,3 C 60 % 1020,6 hPa 0,0 mm 9,1 km/h (2 Bft) W-NW 292 8,6 C 17,1 km/h (3 Bft)
09.05.2015 16:50 16,4 C 18,3 C 59 % 1020,6 hPa 0,0 mm 10,1 km/h (2 Bft) NW 315 8,4 C 15,5 km/h (3 Bft)
09.05.2015 16:55 16,3 C 18,0 C 59 % 1020,9 hPa 0,0 mm 11,9 km/h (2 Bft) W-SW 247 8,3 C 25,1 km/h (4 Bft)
09.05.2015 17:00 16,1 C 17,5 C 58 % 1020,9 hPa 0,0 mm 12,7 km/h (3 Bft) W-SW 247 7,8 C 9,8 km/h (2 Bft)
09.05.2015 17:05 16,0 C 17,3 C 59 % 1020,9 hPa 0,0 mm 11,4 km/h (2 Bft) NW 315 8,0 C 7,0 km/h (2 Bft)
09.05.2015 17:10 16,0 C 17,2 C 59 % 1020,9 hPa 0,0 mm 7,3 km/h (2 Bft) NW 315 8,0 C 18,4 km/h (3 Bft)
09.05.2015 17:15 16,0 C 17,1 C 60 % 1020,9 hPa 0,0 mm 8,0 km/h (2 Bft) W-NW 292 8,2 C 13,7 km/h (3 Bft)
09.05.2015 17:20 15,9 C 17,0 C 59 % 1020,9 hPa 0,0 mm 11,1 km/h (2 Bft) W 270 7,9 C 11,9 km/h (2 Bft)
09.05.2015 17:25 15,9 C 16,9 C 60 % 1020,9 hPa 0,0 mm 11,4 km/h (2 Bft) NW 315 8,1 C 11,9 km/h (2 Bft)
09.05.2015 17:30 15,8 C 16,8 C 61 % 1020,9 hPa 0,0 mm 7,5 km/h (2 Bft) W-SW 247 8,3 C 8,0 km/h (2 Bft)
09.05.2015 17:35 15,8 C 16,7 C 61 % 1020,9 hPa 0,0 mm 6,7 km/h (2 Bft) W-NW 292 8,3 C 5,2 km/h (1 Bft)
09.05.2015 17:40 15,8 C 16,5 C 62 % 1020,9 hPa 0,0 mm 6,5 km/h (2 Bft) W 270 8,5 C 6,0 km/h (2 Bft)
09.05.2015 17:45 15,9 C 16,5 C 62 % 1020,9 hPa 0,0 mm 5,2 km/h (1 Bft) W 270 8,6 C 8,0 km/h (2 Bft)
09.05.2015 17:50 15,8 C 16,7 C 62 % 1020,9 hPa 0,0 mm 4,9 km/h (1 Bft) W-SW 247 8,5 C 9,3 km/h (2 Bft)
09.05.2015 17:55 15,9 C 17,0 C 63 % 1020,8 hPa 0,0 mm 5,2 km/h (1 Bft) W-NW 292 8,9 C 7,0 km/h (2 Bft)
09.05.2015 18:00 16,0 C 17,2 C 61 % 1020,8 hPa 0,0 mm 4,9 km/h (1 Bft) W-SW 247 8,5 C 6,5 km/h (2 Bft)
09.05.2015 18:05 15,9 C 17,2 C 63 % 1020,8 hPa 0,0 mm 5,4 km/h (1 Bft) NW 315 8,9 C 7,3 km/h (2 Bft)
09.05.2015 18:10 15,9 C 17,1 C 63 % 1020,8 hPa 0,0 mm 6,0 km/h (2 Bft) W-NW 292 8,9 C 8,5 km/h (2 Bft)
09.05.2015 18:15 15,9 C 17,1 C 62 % 1020,9 hPa 0,0 mm 7,0 km/h (2 Bft) W 270 8,6 C 9,8 km/h (2 Bft)
09.05.2015 18:20 15,8 C 17,0 C 62 % 1020,9 hPa 0,0 mm 7,3 km/h (2 Bft) NW 315 8,5 C 7,0 km/h (2 Bft)
09.05.2015 18:25 15,9 C 17,1 C 62 % 1020,9 hPa 0,0 mm 6,7 km/h (2 Bft) W-SW 247 8,6 C 7,0 km/h (2 Bft)
09.05.2015 18:30 15,9 C 17,1 C 62 % 1020,9 hPa 0,0 mm 7,3 km/h (2 Bft) W-NW 292 8,6 C 21,8 km/h (4 Bft)
09.05.2015 18:35 15,8 C 17,1 C 63 % 1020,9 hPa 0,0 mm 6,7 km/h (2 Bft) W-NW 292 8,8 C 18,1 km/h (3 Bft)
09.05.2015 18:40 15,9 C 16,9 C 62 % 1020,9 hPa 0,0 mm 8,0 km/h (2 Bft) W 270 8,6 C 12,2 km/h (2 Bft)
09.05.2015 18:45 15,8 C 16,7 C 62 % 1020,9 hPa 0,0 mm 9,6 km/h (2 Bft) W 270 8,5 C 10,9 km/h (2 Bft)
09.05.2015 18:50 15,7 C 16,5 C 63 % 1020,9 hPa 0,0 mm 9,6 km/h (2 Bft) W-SW 247 8,7 C 7,0 km/h (2 Bft)
09.05.2015 18:55 15,6 C 16,3 C 63 % 1020,9 hPa 0,0 mm 7,5 km/h (2 Bft) NW 315 8,6 C 8,0 km/h (2 Bft)
09.05.2015 19:00 15,5 C 16,1 C 63 % 1020,9 hPa 0,0 mm 4,9 km/h (1 Bft) W 270 8,5 C 5,2 km/h (1 Bft)
09.05.2015 19:05 15,4 C 16,1 C 64 % 1020,9 hPa 0,0 mm 4,1 km/h (1 Bft) W-SW 247 8,6 C 0,0 km/h (0 Bft)
09.05.2015 19:10 15,3 C 15,9 C 64 % 1020,9 hPa 0,0 mm 2,6 km/h (1 Bft) W-SW 247 8,5 C 3,1 km/h (1 Bft)
09.05.2015 19:15 15,2 C 15,8 C 65 % 1020,6 hPa 0,0 mm 2,6 km/h (1 Bft) SW 225 8,7 C 2,6 km/h (1 Bft)
09.05.2015 19:20 15,1 C 15,8 C 65 % 1020,6 hPa 0,0 mm 2,6 km/h (1 Bft) W-SW 247 8,6 C 3,4 km/h (1 Bft)
09.05.2015 19:25 15,1 C 15,8 C 65 % 1020,6 hPa 0,0 mm 3,4 km/h (1 Bft) W 270 8,6 C 6,5 km/h (2 Bft)
09.05.2015 19:30 15,0 C 15,7 C 65 % 1020,6 hPa 0,0 mm 2,6 km/h (1 Bft) S-SW 202 8,5 C 3,1 km/h (1 Bft)
09.05.2015 19:35 15,0 C 15,8 C 66 % 1020,9 hPa 0,0 mm 1,6 km/h (1 Bft) N-NW 337 8,7 C 4,7 km/h (1 Bft)
09.05.2015 19:40 14,9 C 15,9 C 66 % 1020,9 hPa 0,0 mm 2,3 km/h (1 Bft) W 270 8,6 C 0,0 km/h (0 Bft)
09.05.2015 19:45 14,8 C 15,8 C 66 % 1020,9 hPa 0,0 mm 2,8 km/h (1 Bft) N-NW 337 8,5 C 2,8 km/h (1 Bft)
09.05.2015 19:50 14,8 C 15,9 C 66 % 1020,9 hPa 0,0 mm 3,6 km/h (1 Bft) O-NO 67 8,5 C 4,9 km/h (1 Bft)
09.05.2015 19:55 14,7 C 15,9 C 66 % 1021,1 hPa 0,0 mm 4,7 km/h (1 Bft) W 270 8,4 C 10,6 km/h (2 Bft)
09.05.2015 20:00 14,7 C 16,4 C 66 % 1021,1 hPa 0,0 mm 4,9 km/h (1 Bft) SW 225 8,4 C 7,8 km/h (2 Bft)
09.05.2015 20:05 14,6 C 16,5 C 66 % 1021,1 hPa 0,0 mm 4,9 km/h (1 Bft) S-SW 202 8,3 C 5,2 km/h (1 Bft)
09.05.2015 20:10 14,5 C 16,3 C 66 % 1021,1 hPa 0,0 mm 3,9 km/h (1 Bft) W-SW 247 8,2 C 0,0 km/h (0 Bft)
09.05.2015 20:15 14,3 C 16,2 C 66 % 1021,1 hPa 0,0 mm 3,6 km/h (1 Bft) W 270 8,0 C 0,0 km/h (0 Bft)
09.05.2015 20:20 14,1 C 15,3 C 67 % 1021,1 hPa 0,0 mm 4,7 km/h (1 Bft) SW 225 8,1 C 5,7 km/h (1 Bft)
09.05.2015 20:25 13,9 C 14,8 C 67 % 1021,1 hPa 0,0 mm 4,4 km/h (1 Bft) W-SW 247 7,9 C 7,0 km/h (2 Bft)
09.05.2015 20:30 13,7 C 14,0 C 67 % 1021,1 hPa 0,0 mm 4,4 km/h (1 Bft) S 180 7,7 C 4,9 km/h (1 Bft)
09.05.2015 20:35 13,7 C 13,7 C 67 % 1021,0 hPa 0,0 mm 4,9 km/h (1 Bft) SW 225 7,7 C 9,8 km/h (2 Bft)
09.05.2015 20:40 13,8 C 13,7 C 67 % 1021,0 hPa 0,0 mm 7,3 km/h (2 Bft) S 180 7,8 C 14,5 km/h (3 Bft)
09.05.2015 20:45 13,6 C 13,5 C 67 % 1021,0 hPa 0,0 mm 7,3 km/h (2 Bft) S 180 7,6 C 19,7 km/h (3 Bft)
09.05.2015 20:50 13,5 C 13,4 C 67 % 1021,0 hPa 0,0 mm 5,7 km/h (1 Bft) W 270 7,5 C 3,4 km/h (1 Bft)
09.05.2015 20:55 13,3 C 13,2 C 67 % 1021,2 hPa 0,0 mm 4,9 km/h (1 Bft) SW 225 7,3 C 4,4 km/h (1 Bft)
09.05.2015 21:00 13,2 C 13,1 C 68 % 1021,2 hPa 0,0 mm 4,9 km/h (1 Bft) SW 225 7,4 C 4,7 km/h (1 Bft)
09.05.2015 21:05 13,1 C 13,0 C 68 % 1021,2 hPa 0,0 mm 5,4 km/h (1 Bft) W-SW 247 7,3 C 0,0 km/h (0 Bft)
09.05.2015 21:10 12,9 C 12,7 C 69 % 1021,2 hPa 0,0 mm 3,9 km/h (1 Bft) W-SW 247 7,4 C 7,3 km/h (2 Bft)
09.05.2015 21:15 12,8 C 12,6 C 69 % 1021,4 hPa 0,0 mm 3,6 km/h (1 Bft) W-SW 247 7,3 C 3,1 km/h (1 Bft)
09.05.2015 21:20 12,6 C 12,4 C 69 % 1021,4 hPa 0,0 mm 3,4 km/h (1 Bft) S-SO 157 7,1 C 2,8 km/h (1 Bft)
09.05.2015 21:25 12,6 C 12,4 C 71 % 1021,4 hPa 0,0 mm 3,9 km/h (1 Bft) W 270 7,5 C 9,6 km/h (2 Bft)
09.05.2015 21:30 12,6 C 12,4 C 71 % 1021,4 hPa 0,0 mm 5,2 km/h (1 Bft) W 270 7,5 C 2,8 km/h (1 Bft)
09.05.2015 21:35 12,4 C 12,2 C 71 % 1021,3 hPa 0,0 mm 5,4 km/h (1 Bft) W-SW 247 7,3 C 6,5 km/h (2 Bft)
09.05.2015 21:40 12,4 C 12,2 C 71 % 1021,3 hPa 0,0 mm 4,4 km/h (1 Bft) W 270 7,3 C 2,6 km/h (1 Bft)
09.05.2015 21:45 12,4 C 12,2 C 71 % 1021,3 hPa 0,0 mm 4,1 km/h (1 Bft) SW 225 7,3 C 7,0 km/h (2 Bft)
09.05.2015 21:50 12,3 C 12,1 C 71 % 1021,3 hPa 0,0 mm 3,4 km/h (1 Bft) S-SW 202 7,2 C 0,0 km/h (0 Bft)
09.05.2015 21:55 12,4 C 12,1 C 72 % 1021,8 hPa 0,0 mm 5,2 km/h (1 Bft) W-SW 247 7,5 C 10,4 km/h (2 Bft)
09.05.2015 21:58 12,6 C 12,3 C 72 % 1021,8 hPa 0,0 mm 5,7 km/h (1 Bft) W-NW 292 7,7 C 9,6 km/h (2 Bft)
09.05.2015 22:01 12,6 C 12,3 C 72 % 1021,8 hPa 0,0 mm 5,7 km/h (1 Bft) W-NW 292 7,7 C 9,6 km/h (2 Bft)
09.05.2015 22:05 12,6 C 12,4 C 71 % 1021,8 hPa 0,0 mm 5,2 km/h (1 Bft) W-SW 247 7,5 C 3,4 km/h (1 Bft)
09.05.2015 22:10 12,4 C 12,2 C 71 % 1021,8 hPa 0,0 mm 3,9 km/h (1 Bft) W-SW 247 7,3 C 7,8 km/h (2 Bft)
09.05.2015 22:15 12,4 C 12,2 C 71 % 1022,1 hPa 0,0 mm 3,1 km/h (1 Bft) W-SW 247 7,3 C 5,7 km/h (1 Bft)
09.05.2015 22:20 12,3 C 12,1 C 71 % 1022,1 hPa 0,0 mm 3,6 km/h (1 Bft) NW 315 7,2 C 6,0 km/h (2 Bft)
09.05.2015 22:25 12,5 C 12,3 C 71 % 1022,1 hPa 0,0 mm 3,6 km/h (1 Bft) W-SW 247 7,4 C 4,1 km/h (1 Bft)
09.05.2015 22:30 12,6 C 12,4 C 71 % 1022,1 hPa 0,0 mm 3,9 km/h (1 Bft) W-SW 247 7,5 C 9,6 km/h (2 Bft)
09.05.2015 22:35 12,8 C 12,6 C 70 % 1022,6 hPa 0,0 mm 4,1 km/h (1 Bft) SW 225 7,5 C 6,5 km/h (2 Bft)
09.05.2015 22:40 12,6 C 12,5 C 69 % 1022,6 hPa 0,0 mm 4,7 km/h (1 Bft) O 90 7,1 C 10,9 km/h (2 Bft)
09.05.2015 22:45 12,7 C 12,5 C 69 % 1022,6 hPa 0,0 mm 4,7 km/h (1 Bft) SW 225 7,2 C 0,0 km/h (0 Bft)
09.05.2015 22:50 12,4 C 12,3 C 69 % 1022,6 hPa 0,0 mm 3,4 km/h (1 Bft) SW 225 6,9 C 5,7 km/h (1 Bft)
09.05.2015 22:55 12,2 C 12,1 C 69 % 1022,9 hPa 0,0 mm 2,1 km/h (1 Bft) W-SW 247 6,7 C 8,3 km/h (2 Bft)
09.05.2015 23:00 12,2 C 12,1 C 69 % 1022,9 hPa 0,0 mm 2,1 km/h (1 Bft) W 270 6,7 C 4,1 km/h (1 Bft)
09.05.2015 23:05 12,3 C 12,1 C 69 % 1022,9 hPa 0,0 mm 3,4 km/h (1 Bft) W-SW 247 6,8 C 0,0 km/h (0 Bft)
09.05.2015 23:10 12,3 C 12,1 C 69 % 1022,9 hPa 0,0 mm 3,4 km/h (1 Bft) W-SW 247 6,8 C 4,4 km/h (1 Bft)
09.05.2015 23:15 12,4 C 12,2 C 69 % 1023,0 hPa 0,0 mm 3,1 km/h (1 Bft) W-SW 247 6,9 C 5,4 km/h (1 Bft)
09.05.2015 23:20 12,6 C 12,4 C 69 % 1023,0 hPa 0,0 mm 4,1 km/h (1 Bft) S-SO 157 7,1 C 8,5 km/h (2 Bft)
09.05.2015 23:25 12,6 C 12,5 C 68 % 1023,0 hPa 0,0 mm 4,9 km/h (1 Bft) SW 225 6,9 C 4,4 km/h (1 Bft)
09.05.2015 23:30 12,7 C 12,5 C 68 % 1023,0 hPa 0,0 mm 4,1 km/h (1 Bft) W 270 6,9 C 5,7 km/h (1 Bft)
09.05.2015 23:35 12,8 C 12,6 C 67 % 1023,1 hPa 0,0 mm 4,1 km/h (1 Bft) SW 225 6,8 C 3,6 km/h (1 Bft)
09.05.2015 23:40 12,8 C 12,7 C 67 % 1023,1 hPa 0,0 mm 3,9 km/h (1 Bft) W-NW 292 6,8 C 2,6 km/h (1 Bft)
09.05.2015 23:45 12,6 C 12,5 C 67 % 1023,1 hPa 0,0 mm 3,6 km/h (1 Bft) NW 315 6,6 C 6,2 km/h (2 Bft)
09.05.2015 23:50 12,6 C 12,5 C 67 % 1023,1 hPa 0,0 mm 4,7 km/h (1 Bft) W 270 6,6 C 15,3 km/h (3 Bft)
09.05.2015 23:55 12,6 C 12,5 C 67 % 1023,2 hPa 0,0 mm 4,9 km/h (1 Bft) W-SW 247 6,6 C 6,5 km/h (2 Bft)
_ Min-Zeit 05:05 05:00 17:00 00:10 - 05:05 - - 23:55 23:05
Minimum _ 9,9 C 9,8 C 58 % 1016,8 hPa - 0,0 km/h (0 Bft) - - 6,6 C 0,0 km/h (0 Bft)
_ Max-Zeit 14:35 14:30 05:55 23:55 07:20 16:05 - - 14:10 15:20
Maximum _ 17,6 C 22,7 C 88 % 1023,2 hPa 0,7 mm 13,7 km/h
NW (3 Bft)
- - 10,7 C 33,1 km/h
W (5 Bft)
Durchschnitt _ 13,2 C 14,1 C 73 % 1020,0 hPa #2,1 mm 4,9 km/h (1 Bft) W-SW - 8,3 C 6,8 km/h (2 Bft)